Time;durP1;ratioP1;P1;durP2;ratioP2;P2;SDS_P1;SDS_P2;PMS_P1;PMS_P2;Temp;Humidity;BMP_temperature;BMP_pressure;BME280_temperature;BME280_humidity;BME280_pressure;Samples;Min_cycle;Max_cycle;Signal;HPM_P1;HPM_P2
2022/04/11 00:00:33;;;;;;;3.43;2.63;;;;;;;;;;5074330;28;20394;-74
2022/04/11 00:03:01;;;;;;;2.20;2.03;;;;;;;;;;5074283;28;20436;-74
2022/04/11 00:05:28;;;;;;;3.10;2.90;;;;;;;;;;5074261;28;20373;-74
2022/04/11 00:07:54;;;;;;;2.60;2.50;;;;;;;;;;5074167;28;20406;-74
2022/04/11 00:10:23;;;;;;;2.55;2.35;;;;;;;;;;5074204;28;20437;-74
2022/04/11 00:12:49;;;;;;;3.10;2.90;;;;;;;;;;5074047;28;20213;-74
2022/04/11 00:15:15;;;;;;;2.80;2.70;;;;;;;;;;5074074;28;20168;-74
2022/04/11 00:17:41;;;;;;;3.10;3.00;;;;;;;;;;5074166;28;20422;-74
2022/04/11 00:20:07;;;;;;;2.40;2.30;;;;;;;;;;5073946;28;20928;-74
2022/04/11 00:22:36;;;;;;;2.20;2.20;;;;;;;;;;5074079;28;20897;-74
2022/04/11 00:25:02;;;;;;;2.70;2.43;;;;;;;;;;5073968;28;20398;-74
2022/04/11 00:27:29;;;;;;;2.55;2.45;;;;;;;;;;5073912;28;20396;-74
2022/04/11 00:29:55;;;;;;;2.60;2.47;;;;;;;;;;5072673;28;20202;-73
2022/04/11 00:32:21;;;;;;;2.00;2.00;;;;;;;;;;5073707;28;20449;-74
2022/04/11 00:34:46;;;;;;;2.70;2.50;;;;;;;;;;5073738;28;20881;-73
2022/04/11 00:37:12;;;;;;;2.80;2.60;;;;;;;;;;5073816;28;20402;-74
2022/04/11 00:39:38;;;;;;;3.10;2.50;;;;;;;;;;5073735;28;20430;-73
2022/04/11 00:42:09;;;;;;;2.65;2.45;;;;;;;;;;5073512;28;20464;-73
2022/04/11 00:44:35;;;;;;;2.30;2.30;;;;;;;;;;5073616;28;20164;-73
2022/04/11 00:47:02;;;;;;;2.03;1.87;;;;;;;;;;5073739;28;20492;-74
2022/04/11 00:49:28;;;;;;;2.70;2.53;;;;;;;;;;5073448;28;20374;-73
2022/04/11 00:51:54;;;;;;;3.00;2.70;;;;;;;;;;5073453;28;20496;-73
2022/04/11 00:54:21;;;;;;;2.60;2.50;;;;;;;;;;5073527;28;20401;-73
2022/04/11 00:56:47;;;;;;;2.35;2.35;;;;;;;;;;5073380;28;20418;-74
2022/04/11 00:59:15;;;;;;;2.50;2.50;;;;;;;;;;5073523;28;20164;-74
2022/04/11 01:01:41;;;;;;;2.40;2.30;;;;;;;;;;5073508;28;20277;-74
2022/04/11 01:04:23;;;;;;;2.20;2.20;;;;;;;;;;5073398;28;20886;-74
2022/04/11 01:06:48;;;;;;;2.03;1.93;;;;;;;;;;5073409;28;20414;-74
2022/04/11 01:09:14;;;;;;;2.50;2.50;;;;;;;;;;5073381;28;20497;-74
2022/04/11 01:11:40;;;;;;;4.33;2.23;;;;;;;;;;5071956;28;20478;-74
2022/04/11 01:14:06;;;;;;;2.10;2.10;;;;;;;;;;5073274;28;20403;-74
2022/04/11 01:16:32;;;;;;;2.30;2.30;;;;;;;;;;5073576;28;20410;-74
2022/04/11 01:18:58;;;;;;;2.03;2.03;;;;;;;;;;5073274;28;20418;-74
2022/04/11 01:21:31;;;;;;;1.87;1.87;;;;;;;;;;5073324;28;20413;-74
2022/04/11 01:23:57;;;;;;;2.10;2.00;;;;;;;;;;5073213;28;20904;-74
2022/04/11 01:26:23;;;;;;;2.50;2.40;;;;;;;;;;5071819;28;20426;-74
2022/04/11 01:28:49;;;;;;;2.60;2.50;;;;;;;;;;5073114;28;20493;-73
2022/04/11 01:31:16;;;;;;;2.35;2.25;;;;;;;;;;5073161;28;20398;-74
2022/04/11 01:33:42;;;;;;;2.08;1.98;;;;;;;;;;5073030;28;20670;-74
2022/04/11 01:36:08;;;;;;;1.80;1.80;;;;;;;;;;5073131;28;20160;-73
2022/04/11 01:38:34;;;;;;;2.17;2.17;;;;;;;;;;5073002;28;20426;-74
2022/04/11 01:41:00;;;;;;;2.37;2.37;;;;;;;;;;5072946;28;20546;-74
2022/04/11 01:43:26;;;;;;;2.10;2.00;;;;;;;;;;5072760;28;20462;-73
2022/04/11 01:45:53;;;;;;;2.40;2.15;;;;;;;;;;5071769;28;20175;-74
2022/04/11 01:48:19;;;;;;;2.33;2.15;;;;;;;;;;5072943;28;20256;-74
2022/04/11 01:50:45;;;;;;;2.65;2.55;;;;;;;;;;5072839;28;20199;-74
2022/04/11 01:53:13;;;;;;;2.70;2.50;;;;;;;;;;5072857;28;20651;-74
2022/04/11 01:55:39;;;;;;;2.15;2.15;;;;;;;;;;5072956;28;20168;-74
2022/04/11 01:58:06;;;;;;;2.20;2.20;;;;;;;;;;5073437;28;20179;-74
2022/04/11 02:00:32;;;;;;;2.90;2.42;;;;;;;;;;5076691;28;20593;-74
2022/04/11 02:02:59;;;;;;;2.53;2.53;;;;;;;;;;5076621;28;20623;-74
2022/04/11 02:05:28;;;;;;;4.70;2.40;;;;;;;;;;5076556;28;20202;-74
2022/04/11 02:07:54;;;;;;;2.63;2.30;;;;;;;;;;5076545;28;20175;-74
2022/04/11 02:10:21;;;;;;;2.47;2.37;;;;;;;;;;5076551;28;20164;-73
2022/04/11 02:12:47;;;;;;;2.70;2.47;;;;;;;;;;5076239;28;20490;-73
2022/04/11 02:15:13;;;;;;;2.37;2.27;;;;;;;;;;5076354;28;20467;-73
2022/04/11 02:17:39;;;;;;;2.30;2.20;;;;;;;;;;5076406;28;20389;-73
2022/04/11 02:20:07;;;;;;;2.23;2.23;;;;;;;;;;5076238;28;20373;-73
2022/04/11 02:22:46;;;;;;;2.20;2.10;;;;;;;;;;5058529;28;20430;-73
2022/04/11 02:25:12;;;;;;;2.00;2.00;;;;;;;;;;5076223;28;20482;-73
2022/04/11 02:27:38;;;;;;;2.10;2.00;;;;;;;;;;5076131;28;20182;-73
2022/04/11 02:30:05;;;;;;;2.63;2.53;;;;;;;;;;5076092;28;20168;-73
2022/04/11 02:32:31;;;;;;;2.37;2.30;;;;;;;;;;5075970;28;20501;-73
2022/04/11 02:34:57;;;;;;;2.77;2.57;;;;;;;;;;5076015;28;20372;-73
2022/04/11 02:37:23;;;;;;;2.83;2.70;;;;;;;;;;5075894;28;20777;-73
2022/04/11 02:39:49;;;;;;;2.77;2.67;;;;;;;;;;5075985;28;20485;-73
2022/04/11 02:42:25;;;;;;;2.57;2.40;;;;;;;;;;5075718;28;20577;-73
2022/04/11 02:44:51;;;;;;;2.97;2.30;;;;;;;;;;5075847;28;20751;-73
2022/04/11 02:47:17;;;;;;;5.30;2.73;;;;;;;;;;5075877;28;20191;-73
2022/04/11 02:49:43;;;;;;;2.65;2.65;;;;;;;;;;5075724;28;20406;-74
2022/04/11 02:52:09;;;;;;;2.17;2.17;;;;;;;;;;5075678;28;20634;-73
2022/04/11 02:54:36;;;;;;;2.53;2.53;;;;;;;;;;5075660;28;20233;-73
2022/04/11 02:57:02;;;;;;;2.65;2.45;;;;;;;;;;5075614;28;20172;-74
2022/04/11 02:59:28;;;;;;;2.93;2.83;;;;;;;;;;5075503;28;20164;-73
2022/04/11 03:01:55;;;;;;;4.85;2.90;;;;;;;;;;5075534;28;20792;-73
2022/04/11 03:04:21;;;;;;;2.38;2.10;;;;;;;;;;5075483;28;20209;-73
2022/04/11 03:06:47;;;;;;;2.97;2.87;;;;;;;;;;5075439;28;20569;-73
2022/04/11 03:09:13;;;;;;;2.43;2.43;;;;;;;;;;5074785;28;20489;-73
2022/04/11 03:11:39;;;;;;;2.77;2.70;;;;;;;;;;5073306;28;20768;-73
2022/04/11 03:14:05;;;;;;;2.63;2.53;;;;;;;;;;5075200;28;20407;-74
2022/04/11 03:16:31;;;;;;;2.53;2.43;;;;;;;;;;5073934;28;20462;-73
2022/04/11 03:18:57;;;;;;;2.72;2.63;;;;;;;;;;5075192;28;20418;-73
2022/04/11 03:21:23;;;;;;;2.60;2.45;;;;;;;;;;5075173;28;20175;-73
2022/04/11 03:23:49;;;;;;;4.70;2.50;;;;;;;;;;5075109;28;20172;-73
2022/04/11 03:26:15;;;;;;;2.90;2.65;;;;;;;;;;5074937;28;20441;-74
2022/04/11 03:28:41;;;;;;;2.27;2.27;;;;;;;;;;5074996;28;20168;-73
2022/04/11 03:31:07;;;;;;;5.23;2.67;;;;;;;;;;5074998;28;20413;-74
2022/04/11 03:33:33;;;;;;;2.53;2.43;;;;;;;;;;5074840;28;20968;-73
2022/04/11 03:35:59;;;;;;;2.13;2.13;;;;;;;;;;5074865;28;20497;-74
2022/04/11 03:38:25;;;;;;;3.50;2.50;;;;;;;;;;5074709;28;20421;-73
2022/04/11 03:40:51;;;;;;;2.45;2.35;;;;;;;;;;5074808;28;20432;-73
2022/04/11 03:43:17;;;;;;;2.37;2.37;;;;;;;;;;5074450;28;20232;-73
2022/04/11 03:45:43;;;;;;;3.25;3.15;;;;;;;;;;5073430;28;20501;-73
2022/04/11 03:48:09;;;;;;;2.80;2.70;;;;;;;;;;5074678;28;20639;-73
2022/04/11 03:50:35;;;;;;;2.50;2.50;;;;;;;;;;5074529;28;20168;-73
2022/04/11 03:53:01;;;;;;;2.70;2.70;;;;;;;;;;5074461;28;20477;-73
2022/04/11 03:55:27;;;;;;;2.30;2.30;;;;;;;;;;5074614;28;20164;-73
2022/04/11 03:57:53;;;;;;;2.83;2.70;;;;;;;;;;5074219;28;20433;-73
2022/04/11 04:00:19;;;;;;;2.60;2.50;;;;;;;;;;5074371;28;20489;-73
2022/04/11 04:02:45;;;;;;;3.07;2.87;;;;;;;;;;5074348;28;20410;-73
2022/04/11 04:05:11;;;;;;;2.80;2.70;;;;;;;;;;5074352;28;20394;-73
2022/04/11 04:07:37;;;;;;;2.67;2.67;;;;;;;;;;5074205;28;20301;-73
2022/04/11 04:10:04;;;;;;;2.50;2.33;;;;;;;;;;5074253;28;20665;-73
2022/04/11 04:12:30;;;;;;;6.95;3.13;;;;;;;;;;5074122;28;20207;-73
2022/04/11 04:14:56;;;;;;;7.87;2.93;;;;;;;;;;5074092;28;20168;-73
2022/04/11 04:17:22;;;;;;;3.28;3.17;;;;;;;;;;5074131;28;20898;-73
2022/04/11 04:19:48;;;;;;;2.97;2.80;;;;;;;;;;5074034;28;20174;-73
2022/04/11 04:22:14;;;;;;;4.07;2.63;;;;;;;;;;5073622;28;20170;-73
2022/04/11 04:24:40;;;;;;;2.42;2.42;;;;;;;;;;5072724;28;20176;-73
2022/04/11 04:27:07;;;;;;;2.72;2.63;;;;;;;;;;5073758;28;20167;-73
2022/04/11 04:29:33;;;;;;;3.28;2.85;;;;;;;;;;5073835;28;20176;-73
2022/04/11 04:31:59;;;;;;;3.38;3.17;;;;;;;;;;5073740;28;20191;-74
2022/04/11 04:34:25;;;;;;;4.30;4.10;;;;;;;;;;5073698;28;20175;-73
2022/04/11 04:36:52;;;;;;;3.92;3.83;;;;;;;;;;5073597;28;20251;-73
2022/04/11 04:39:18;;;;;;;3.40;3.20;;;;;;;;;;5073660;28;20241;-73
2022/04/11 04:41:44;;;;;;;3.35;3.15;;;;;;;;;;5073462;28;20216;-73
2022/04/11 04:44:10;;;;;;;4.90;3.28;;;;;;;;;;5073630;28;20183;-73
2022/04/11 04:46:36;;;;;;;3.70;3.60;;;;;;;;;;5073610;28;20167;-73
2022/04/11 04:49:03;;;;;;;3.30;3.30;;;;;;;;;;5073624;28;20171;-73
2022/04/11 04:51:29;;;;;;;3.15;3.00;;;;;;;;;;5073499;28;20909;-73
2022/04/11 04:53:55;;;;;;;3.80;3.60;;;;;;;;;;5073399;28;20671;-74
2022/04/11 04:56:21;;;;;;;4.63;4.43;;;;;;;;;;5073538;28;20277;-74
2022/04/11 04:58:48;;;;;;;4.50;4.30;;;;;;;;;;5073469;28;20203;-74
2022/04/11 05:01:14;;;;;;;6.57;3.72;;;;;;;;;;5073325;28;20413;-74
2022/04/11 05:03:41;;;;;;;3.50;3.30;;;;;;;;;;5073403;28;20159;-74
2022/04/11 05:06:07;;;;;;;4.70;4.30;;;;;;;;;;5073355;28;20175;-74
2022/04/11 05:08:33;;;;;;;4.10;3.80;;;;;;;;;;5073366;28;20232;-74
2022/04/11 05:10:59;;;;;;;4.30;4.10;;;;;;;;;;5073226;28;20168;-75
2022/04/11 05:13:25;;;;;;;4.88;3.65;;;;;;;;;;5073316;28;20211;-74
2022/04/11 05:15:51;;;;;;;5.28;4.15;;;;;;;;;;5073337;28;20159;-74
2022/04/11 05:18:17;;;;;;;4.20;4.03;;;;;;;;;;5071844;28;20186;-74
2022/04/11 05:20:43;;;;;;;3.93;3.83;;;;;;;;;;5073804;28;20441;-74
2022/04/11 05:23:10;;;;;;;4.13;4.03;;;;;;;;;;5073531;28;20417;-73
2022/04/11 05:25:36;;;;;;;4.03;3.70;;;;;;;;;;5073502;28;20178;-72
2022/04/11 05:28:02;;;;;;;4.60;3.60;;;;;;;;;;5073243;28;20229;-71
2022/04/11 05:30:33;;;;;;;4.10;4.00;;;;;;;;;;5073244;28;20164;-72
2022/04/11 05:32:59;;;;;;;5.28;4.65;;;;;;;;;;5073815;28;20324;-72
2022/04/11 05:35:25;;;;;;;7.47;4.20;;;;;;;;;;5077182;28;20168;-71
2022/04/11 05:37:51;;;;;;;5.63;5.22;;;;;;;;;;5077157;28;20534;-71
2022/04/11 05:40:17;;;;;;;4.50;4.33;;;;;;;;;;5077025;28;20644;-71
2022/04/11 05:42:43;;;;;;;5.13;4.93;;;;;;;;;;5076820;28;20492;-76
2022/04/11 05:45:09;;;;;;;4.97;4.63;;;;;;;;;;5077315;28;20468;-69
2022/04/11 05:47:35;;;;;;;5.00;4.70;;;;;;;;;;5076901;28;20464;-71
2022/04/11 05:50:01;;;;;;;4.70;4.53;;;;;;;;;;5076820;28;20529;-71
2022/04/11 05:52:27;;;;;;;4.57;4.30;;;;;;;;;;5076840;28;20230;-72
2022/04/11 05:54:53;;;;;;;4.80;4.60;;;;;;;;;;5075478;28;20856;-73
2022/04/11 05:57:19;;;;;;;4.10;4.00;;;;;;;;;;5076743;28;20766;-71
2022/04/11 05:59:45;;;;;;;5.50;5.10;;;;;;;;;;5076737;28;20168;-71
2022/04/11 06:02:11;;;;;;;5.23;4.83;;;;;;;;;;5076664;28;20810;-70
2022/04/11 06:04:37;;;;;;;4.97;4.67;;;;;;;;;;5076838;28;20402;-70
2022/04/11 06:07:04;;;;;;;4.85;4.65;;;;;;;;;;5076618;28;20418;-70
2022/04/11 06:09:30;;;;;;;5.00;4.60;;;;;;;;;;5076528;28;20168;-71
2022/04/11 06:11:56;;;;;;;11.77;5.15;;;;;;;;;;5076414;28;20207;-71
2022/04/11 06:14:22;;;;;;;10.05;9.23;;;;;;;;;;5076406;28;20234;-71
2022/04/11 06:16:48;;;;;;;19.63;14.53;;;;;;;;;;5076643;28;20168;-71
2022/04/11 06:19:15;;;;;;;5.17;4.83;;;;;;;;;;5076323;28;20908;-73
2022/04/11 06:21:41;;;;;;;5.25;4.82;;;;;;;;;;5076370;28;20494;-72
2022/04/11 06:24:07;;;;;;;5.43;5.13;;;;;;;;;;5076260;28;20167;-73
2022/04/11 06:26:33;;;;;;;4.75;4.55;;;;;;;;;;5076180;28;20263;-69
2022/04/11 06:28:59;;;;;;;4.37;4.27;;;;;;;;;;5076133;28;20204;-70
2022/04/11 06:31:25;;;;;;;4.23;4.13;;;;;;;;;;5074815;28;20489;-69
2022/04/11 06:33:51;;;;;;;5.30;5.00;;;;;;;;;;5075937;28;20452;-68
2022/04/11 06:36:17;;;;;;;4.70;4.30;;;;;;;;;;5075969;28;20897;-68
2022/04/11 06:38:43;;;;;;;4.13;4.03;;;;;;;;;;5076006;28;20434;-72
2022/04/11 06:41:09;;;;;;;5.37;4.97;;;;;;;;;;5075859;28;20377;-69
2022/04/11 06:43:35;;;;;;;5.40;5.00;;;;;;;;;;5074308;28;20489;-68
2022/04/11 06:46:01;;;;;;;11.70;10.63;;;;;;;;;;5075620;28;20895;-70
2022/04/11 06:48:27;;;;;;;5.40;4.90;;;;;;;;;;5071537;28;20475;-70
2022/04/11 06:50:53;;;;;;;5.50;5.10;;;;;;;;;;5071636;28;20422;-72
2022/04/11 06:53:20;;;;;;;5.17;4.90;;;;;;;;;;5072936;28;20448;-71
2022/04/11 06:55:47;;;;;;;5.50;5.13;;;;;;;;;;5073280;28;20400;-70
2022/04/11 06:58:14;;;;;;;5.70;5.30;;;;;;;;;;5072976;28;20409;-71
2022/04/11 07:00:40;;;;;;;5.57;5.10;;;;;;;;;;5075286;28;20396;-70
2022/04/11 07:03:06;;;;;;;5.90;5.40;;;;;;;;;;5075516;28;20444;-74
2022/04/11 07:05:32;;;;;;;4.70;4.50;;;;;;;;;;5075473;28;20475;-70
2022/04/11 07:07:58;;;;;;;10.87;4.70;;;;;;;;;;5075436;28;20417;-69
2022/04/11 07:10:24;;;;;;;4.57;4.47;;;;;;;;;;5075418;28;20417;-68
2022/04/11 07:12:50;;;;;;;5.40;5.00;;;;;;;;;;5075258;28;20473;-69
2022/04/11 07:15:16;;;;;;;5.97;5.43;;;;;;;;;;5075421;28;20396;-71
2022/04/11 07:17:42;;;;;;;5.57;5.17;;;;;;;;;;5073311;28;20884;-72
2022/04/11 07:20:09;;;;;;;7.80;6.60;;;;;;;;;;5072499;28;20408;-70
2022/04/11 07:22:35;;;;;;;8.20;7.47;;;;;;;;;;5072415;28;20765;-73
2022/04/11 07:25:01;;;;;;;6.20;5.80;;;;;;;;;;5073146;28;20571;-73
2022/04/11 07:27:27;;;;;;;6.70;6.20;;;;;;;;;;5074960;28;20393;-71
2022/04/11 07:29:53;;;;;;;6.97;6.20;;;;;;;;;;5073772;28;20420;-71
2022/04/11 07:32:19;;;;;;;6.93;6.23;;;;;;;;;;5074982;28;20450;-73
2022/04/11 07:34:45;;;;;;;5.53;5.23;;;;;;;;;;5073648;28;20886;-75
2022/04/11 07:37:11;;;;;;;5.67;5.17;;;;;;;;;;5073547;28;20471;-74
2022/04/11 07:39:38;;;;;;;5.20;4.80;;;;;;;;;;5074915;28;20501;-72
2022/04/11 07:42:04;;;;;;;5.73;4.40;;;;;;;;;;5074525;28;20463;-72
2022/04/11 07:44:30;;;;;;;5.50;5.10;;;;;;;;;;5073483;28;20798;-72
2022/04/11 07:46:56;;;;;;;6.30;5.70;;;;;;;;;;5074713;28;20414;-72
2022/04/11 07:49:22;;;;;;;6.73;6.13;;;;;;;;;;5073383;28;20422;-72
2022/04/11 07:51:48;;;;;;;6.50;6.10;;;;;;;;;;5074412;28;20406;-73
2022/04/11 07:54:14;;;;;;;6.30;5.80;;;;;;;;;;5074557;28;20514;-72
2022/04/11 07:56:40;;;;;;;6.53;5.90;;;;;;;;;;5073675;28;20458;-71
2022/04/11 07:59:06;;;;;;;23.57;19.40;;;;;;;;;;5073106;28;20416;-72
2022/04/11 08:01:32;;;;;;;8.67;7.93;;;;;;;;;;5073102;28;20451;-72
2022/04/11 08:03:58;;;;;;;5.80;5.40;;;;;;;;;;5074411;28;20495;-74
2022/04/11 08:06:24;;;;;;;5.20;4.90;;;;;;;;;;5074300;28;20498;-75
2022/04/11 08:08:50;;;;;;;5.67;5.17;;;;;;;;;;5074223;28;20410;-73
2022/04/11 08:11:17;;;;;;;4.93;4.63;;;;;;;;;;5072944;28;20450;-73
2022/04/11 08:13:43;;;;;;;5.73;5.30;;;;;;;;;;5074158;28;20493;-74
2022/04/11 08:16:09;;;;;;;5.23;5.00;;;;;;;;;;5072816;28;20414;-74
2022/04/11 08:18:35;;;;;;;6.07;5.67;;;;;;;;;;5074115;28;20425;-72
2022/04/11 08:21:01;;;;;;;6.33;5.47;;;;;;;;;;5074013;28;20886;-74
2022/04/11 08:23:28;;;;;;;12.13;4.83;;;;;;;;;;5072722;28;20443;-75
2022/04/11 08:25:54;;;;;;;8.23;4.83;;;;;;;;;;5072745;28;20884;-74
2022/04/11 08:28:20;;;;;;;5.83;5.53;;;;;;;;;;5073804;28;20954;-74
2022/04/11 08:30:46;;;;;;;4.50;4.30;;;;;;;;;;5073850;28;20414;-73
2022/04/11 08:33:12;;;;;;;5.10;4.70;;;;;;;;;;5073628;28;20834;-71
2022/04/11 08:35:38;;;;;;;5.57;5.07;;;;;;;;;;5073863;28;20398;-74
2022/04/11 08:38:04;;;;;;;5.80;4.97;;;;;;;;;;5073806;28;20403;-73
2022/04/11 08:40:31;;;;;;;4.63;4.30;;;;;;;;;;5073755;28;20402;-73
2022/04/11 08:42:57;;;;;;;4.00;3.83;;;;;;;;;;5073501;28;20466;-74
2022/04/11 08:45:23;;;;;;;6.10;4.97;;;;;;;;;;5073588;28;20394;-74
2022/04/11 08:47:59;;;;;;;3.83;3.73;;;;;;;;;;5073624;28;20897;-74
2022/04/11 08:50:25;;;;;;;5.30;5.00;;;;;;;;;;5072638;28;20427;-74
2022/04/11 08:52:52;;;;;;;4.70;4.50;;;;;;;;;;5073551;28;20515;-74
2022/04/11 08:55:18;;;;;;;5.17;4.27;;;;;;;;;;5072281;28;20869;-74
2022/04/11 08:57:45;;;;;;;4.13;3.93;;;;;;;;;;5073396;28;20924;-72
2022/04/11 09:00:12;;;;;;;5.40;4.70;;;;;;;;;;5073478;28;20489;-75
2022/04/11 09:02:39;;;;;;;5.90;5.33;;;;;;;;;;5073515;28;20406;-74
2022/04/11 09:05:05;;;;;;;4.03;3.83;;;;;;;;;;5073395;28;20406;-74
2022/04/11 09:07:46;;;;;;;5.87;4.40;;;;;;;;;;5072022;28;20938;-74
2022/04/11 09:10:13;;;;;;;5.47;4.47;;;;;;;;;;5073334;28;20425;-74
2022/04/11 09:12:47;;;;;;;4.43;4.13;;;;;;;;;;5073246;28;20553;-73
2022/04/11 09:15:13;;;;;;;4.70;4.50;;;;;;;;;;5073287;28;20417;-74
2022/04/11 09:17:43;;;;;;;5.13;4.17;;;;;;;;;;5073272;28;20402;-75
2022/04/11 09:20:10;;;;;;;10.40;9.33;;;;;;;;;;5073243;28;20402;-75
2022/04/11 09:22:36;;;;;;;5.10;4.70;;;;;;;;;;5073444;28;20395;-74
2022/04/11 09:25:09;;;;;;;3.97;3.80;;;;;;;;;;5073248;28;20924;-73
2022/04/11 09:27:36;;;;;;;5.03;4.63;;;;;;;;;;5073258;28;20507;-74
2022/04/11 09:30:17;;;;;;;6.93;5.53;;;;;;;;;;5073377;28;20402;-72
2022/04/11 09:32:53;;;;;;;5.53;4.60;;;;;;;;;;5072967;28;20461;-73
2022/04/11 09:35:22;;;;;;;5.83;5.23;;;;;;;;;;5073100;28;20406;-72
2022/04/11 09:37:48;;;;;;;7.03;5.47;;;;;;;;;;5073366;28;20448;-72
2022/04/11 09:40:21;;;;;;;5.50;5.30;;;;;;;;;;5071842;28;20468;-74
2022/04/11 09:42:57;;;;;;;6.70;4.87;;;;;;;;;;5072916;28;20532;-73
2022/04/11 09:45:23;;;;;;;4.50;4.30;;;;;;;;;;5071748;28;20788;-73
2022/04/11 09:47:58;;;;;;;5.67;5.37;;;;;;;;;;5071876;28;20406;-73
2022/04/11 09:50:24;;;;;;;4.60;4.50;;;;;;;;;;5072943;28;20402;-74
2022/04/11 09:52:50;;;;;;;6.27;5.80;;;;;;;;;;5072812;28;20470;-74
2022/04/11 09:55:16;;;;;;;6.23;5.40;;;;;;;;;;5072779;28;20394;-73
2022/04/11 09:57:42;;;;;;;5.20;4.87;;;;;;;;;;5072874;28;20414;-77
2022/04/11 10:00:09;;;;;;;5.03;4.70;;;;;;;;;;5072942;28;20448;-74
2022/04/11 10:02:35;;;;;;;5.70;5.13;;;;;;;;;;5072720;28;20402;-76
2022/04/11 10:05:02;;;;;;;4.33;4.23;;;;;;;;;;5071869;28;20422;-77
2022/04/11 10:07:28;;;;;;;4.53;4.43;;;;;;;;;;5072905;28;20504;-76
2022/04/11 10:09:54;;;;;;;4.23;3.90;;;;;;;;;;5072769;28;20556;-74
2022/04/11 10:12:20;;;;;;;4.60;4.27;;;;;;;;;;5072714;28;20464;-75
2022/04/11 10:14:47;;;;;;;4.77;4.50;;;;;;;;;;5073068;28;20427;-76
2022/04/11 10:17:13;;;;;;;5.13;4.40;;;;;;;;;;5072920;28;20774;-79
2022/04/11 10:19:42;;;;;;;3.70;3.60;;;;;;;;;;5074068;28;20415;-78
2022/04/11 10:22:13;;;;;;;3.80;3.37;;;;;;;;;;5076273;28;20913;-76
2022/04/11 10:24:41;;;;;;;3.30;2.80;;;;;;;;;;5076509;28;20399;-69
2022/04/11 10:27:15;;;;;;;4.03;3.03;;;;;;;;;;5076232;28;20417;-69
2022/04/11 10:29:41;;;;;;;2.30;2.20;;;;;;;;;;5076619;28;20404;-72
2022/04/11 10:32:07;;;;;;;2.20;2.20;;;;;;;;;;5076053;28;20469;-69
2022/04/11 10:34:48;;;;;;;2.43;2.17;;;;;;;;;;5076193;28;20896;-69
2022/04/11 10:37:15;;;;;;;3.13;2.83;;;;;;;;;;5076360;28;20440;-68
2022/04/11 10:39:44;;;;;;;2.63;2.53;;;;;;;;;;5076084;28;20421;-68
2022/04/11 10:42:11;;;;;;;2.73;2.63;;;;;;;;;;5075831;28;20461;-69
2022/04/11 10:44:45;;;;;;;2.70;2.60;;;;;;;;;;5075992;28;20456;-71
2022/04/11 10:47:11;;;;;;;3.03;2.87;;;;;;;;;;5076091;28;20809;-78
2022/04/11 10:49:57;;;;;;;2.30;2.30;;;;;;;;;;5074685;28;20446;-69
2022/04/11 10:52:34;;;;;;;3.33;3.23;;;;;;;;;;5068546;28;20961;-70
2022/04/11 10:55:10;;;;;;;2.70;2.60;;;;;;;;;;5075875;28;20474;-71
2022/04/11 10:57:36;;;;;;;2.23;2.13;;;;;;;;;;5075818;28;20489;-71
2022/04/11 11:00:10;;;;;;;2.50;2.30;;;;;;;;;;5075689;28;20434;-74
2022/04/11 11:02:59;;;;;;;2.10;2.00;;;;;;;;;;5075595;28;20455;-75
2022/04/11 11:05:31;;;;;;;4.77;4.27;;;;;;;;;;5075622;28;20404;-72
2022/04/11 11:08:10;;;;;;;1.83;1.83;;;;;;;;;;5075422;28;20413;-69
2022/04/11 11:10:57;;;;;;;1.67;1.67;;;;;;;;;;5074221;28;20425;-70
2022/04/11 11:13:39;;;;;;;2.50;1.80;;;;;;;;;;5074063;28;20488;-71
2022/04/11 11:16:09;;;;;;;1.37;1.37;;;;;;;;;;5075411;28;20405;-70
2022/04/11 11:21:16;;;;;;;1.70;1.60;;;;;;;;;;5075576;28;20885;-72
2022/04/11 11:23:43;;;;;;;1.47;1.47;;;;;;;;;;5075206;28;20464;-72
2022/04/11 11:26:10;;;;;;;2.70;2.13;;;;;;;;;;5075293;28;20908;-70
2022/04/11 11:28:37;;;;;;;2.00;1.90;;;;;;;;;;5075070;28;20425;-71
2022/04/11 11:31:03;;;;;;;2.17;2.07;;;;;;;;;;5073935;28;20434;-71
2022/04/11 11:33:29;;;;;;;3.03;2.03;;;;;;;;;;5074954;28;20466;-72
2022/04/11 11:35:56;;;;;;;2.33;2.13;;;;;;;;;;5074847;28;20410;-72
2022/04/11 11:38:27;;;;;;;2.17;2.07;;;;;;;;;;5074915;28;20924;-71
2022/04/11 11:40:53;;;;;;;2.20;2.10;;;;;;;;;;5074897;28;20406;-71
2022/04/11 11:43:20;;;;;;;2.80;1.97;;;;;;;;;;5074717;28;20824;-70
2022/04/11 11:45:47;;;;;;;2.60;2.60;;;;;;;;;;5075068;28;20402;-69
2022/04/11 11:48:29;;;;;;;2.27;2.17;;;;;;;;;;5073481;28;20787;-71
2022/04/11 11:50:56;;;;;;;2.00;2.00;;;;;;;;;;5073402;28;20770;-71
2022/04/11 11:53:22;;;;;;;2.40;2.30;;;;;;;;;;5074596;28;20467;-71
2022/04/11 11:55:52;;;;;;;3.40;2.17;;;;;;;;;;5074722;28;21020;-72
2022/04/11 11:58:18;;;;;;;2.30;2.20;;;;;;;;;;5074497;28;20826;-72
2022/04/11 12:00:48;;;;;;;2.60;2.40;;;;;;;;;;5074643;28;20497;-70
2022/04/11 12:06:05;;;;;;;2.03;1.90;;;;;;;;;;5075048;28;20393;-74
2022/04/11 12:08:32;;;;;;;2.23;2.13;;;;;;;;;;5073240;28;20417;-75
2022/04/11 12:11:01;;;;;;;2.07;2.00;;;;;;;;;;5074315;28;20506;-73
2022/04/11 12:13:29;;;;;;;4.83;2.10;;;;;;;;;;5074247;28;20477;-76
2022/04/11 12:16:06;;;;;;;3.60;2.03;;;;;;;;;;5074149;28;20493;-73
2022/04/11 12:18:46;;;;;;;2.10;2.00;;;;;;;;;;5074177;28;20405;-73
2022/04/11 12:21:12;;;;;;;3.07;2.10;;;;;;;;;;5074079;28;20493;-72
2022/04/11 12:23:46;;;;;;;3.50;3.27;;;;;;;;;;5073978;28;20404;-72
2022/04/11 12:26:12;;;;;;;3.40;3.07;;;;;;;;;;5074053;28;20401;-73
2022/04/11 12:28:38;;;;;;;2.30;2.20;;;;;;;;;;5073885;28;20419;-73
2022/04/11 12:31:05;;;;;;;2.03;2.03;;;;;;;;;;5073799;28;20408;-71
2022/04/11 12:33:35;;;;;;;2.13;2.03;;;;;;;;;;5073919;28;20804;-70
2022/04/11 12:36:30;;;;;;;2.40;2.40;;;;;;;;;;5073777;28;20399;-71
2022/04/11 12:38:57;;;;;;;2.00;1.90;;;;;;;;;;5071315;28;20430;-71
2022/04/11 12:41:47;;;;;;;2.97;2.03;;;;;;;;;;5073695;28;20405;-71
2022/04/11 12:44:13;;;;;;;2.10;2.00;;;;;;;;;;5073526;28;20443;-72
2022/04/11 12:46:46;;;;;;;1.97;1.87;;;;;;;;;;5073565;28;20458;-72
2022/04/11 12:49:16;;;;;;;2.33;2.13;;;;;;;;;;5073633;28;20414;-72
2022/04/11 12:51:43;;;;;;;3.80;1.80;;;;;;;;;;5073532;28;20441;-73
2022/04/11 12:54:13;;;;;;;2.50;2.40;;;;;;;;;;5073526;28;20464;-69
2022/04/11 12:56:49;;;;;;;2.10;2.00;;;;;;;;;;5073431;28;20458;-71
2022/04/11 12:59:28;;;;;;;2.87;2.07;;;;;;;;;;5073435;28;20406;-70
2022/04/11 13:01:56;;;;;;;2.03;1.93;;;;;;;;;;5072208;28;20430;-70
2022/04/11 13:04:22;;;;;;;2.00;1.90;;;;;;;;;;5073536;28;20400;-72
2022/04/11 13:06:52;;;;;;;1.70;1.70;;;;;;;;;;5073242;28;20983;-75
2022/04/11 13:09:18;;;;;;;1.70;1.70;;;;;;;;;;5072100;28;20939;-70
2022/04/11 13:11:45;;;;;;;1.77;1.67;;;;;;;;;;5073332;28;20511;-71
2022/04/11 13:14:12;;;;;;;1.73;1.63;;;;;;;;;;5073330;28;21033;-70
2022/04/11 13:19:23;;;;;;;7.00;2.20;;;;;;;;;;5073682;28;20395;-69
2022/04/11 13:21:49;;;;;;;2.40;2.30;;;;;;;;;;5073350;28;20396;-69
2022/04/11 13:24:15;;;;;;;1.87;1.77;;;;;;;;;;5073240;28;20742;-69
2022/04/11 13:26:41;;;;;;;4.67;1.90;;;;;;;;;;5073229;28;20465;-72
2022/04/11 13:29:07;;;;;;;2.10;2.00;;;;;;;;;;5073195;28;20409;-74
2022/04/11 13:31:34;;;;;;;1.57;1.57;;;;;;;;;;5073069;28;20407;-69
2022/04/11 13:34:00;;;;;;;1.83;1.73;;;;;;;;;;5073132;28;20549;-70
2022/04/11 13:36:25;;;;;;;1.63;1.53;;;;;;;;;;5071939;28;20463;-68
2022/04/11 13:38:52;;;;;;;1.83;1.73;;;;;;;;;;5073074;28;20905;-69
2022/04/11 13:41:18;;;;;;;1.20;1.20;;;;;;;;;;5073223;28;20413;-69
2022/04/11 13:43:44;;;;;;;1.63;1.60;;;;;;;;;;5072859;28;20901;-68
2022/04/11 13:46:10;;;;;;;1.70;1.60;;;;;;;;;;5073141;28;20445;-71
2022/04/11 13:48:36;;;;;;;2.10;1.70;;;;;;;;;;5072998;28;20409;-67
2022/04/11 13:51:02;;;;;;;2.07;1.60;;;;;;;;;;5073007;28;20407;-68
2022/04/11 13:53:29;;;;;;;1.83;1.40;;;;;;;;;;5072921;28;20548;-68
2022/04/11 13:55:55;;;;;;;1.83;1.73;;;;;;;;;;5076442;28;20387;-69
2022/04/11 13:58:21;;;;;;;1.20;1.20;;;;;;;;;;5076768;28;20414;-69
2022/04/11 14:00:47;;;;;;;1.73;1.63;;;;;;;;;;5076817;28;20453;-69
2022/04/11 14:03:13;;;;;;;1.43;1.33;;;;;;;;;;5076821;28;20407;-73
2022/04/11 14:05:39;;;;;;;1.33;1.33;;;;;;;;;;5076608;28;20869;-72
2022/04/11 14:08:05;;;;;;;1.87;1.87;;;;;;;;;;5076600;28;20506;-74
2022/04/11 14:10:31;;;;;;;1.30;1.30;;;;;;;;;;5076570;28;20410;-73
2022/04/11 14:12:57;;;;;;;1.63;1.57;;;;;;;;;;5076378;28;20456;-71
2022/04/11 14:15:23;;;;;;;1.60;1.50;;;;;;;;;;5076461;28;20958;-74
2022/04/11 14:17:49;;;;;;;1.60;1.60;;;;;;;;;;5076401;28;20430;-72
2022/04/11 14:20:15;;;;;;;1.57;1.57;;;;;;;;;;5076429;28;20883;-72
2022/04/11 14:22:41;;;;;;;1.53;1.30;;;;;;;;;;5076509;28;20407;-71
2022/04/11 14:25:08;;;;;;;1.47;1.27;;;;;;;;;;5076373;28;20415;-73
2022/04/11 14:27:34;;;;;;;2.20;1.50;;;;;;;;;;5076322;28;20491;-69
2022/04/11 14:30:00;;;;;;;1.43;1.43;;;;;;;;;;5076189;28;20436;-71
2022/04/11 14:32:26;;;;;;;1.37;1.37;;;;;;;;;;5076117;28;20999;-71
2022/04/11 14:34:52;;;;;;;1.53;1.47;;;;;;;;;;5076106;28;20430;-70
2022/04/11 14:37:18;;;;;;;1.90;1.80;;;;;;;;;;5076063;28;20407;-69
2022/04/11 14:39:44;;;;;;;4.00;1.20;;;;;;;;;;5076026;28;20410;-71
2022/04/11 14:42:11;;;;;;;1.90;1.80;;;;;;;;;;5075755;28;20470;-70
2022/04/11 14:44:37;;;;;;;2.00;1.40;;;;;;;;;;5076128;28;20883;-69
2022/04/11 14:47:05;;;;;;;1.13;1.13;;;;;;;;;;5076318;28;20443;-69
2022/04/11 14:49:31;;;;;;;1.10;1.10;;;;;;;;;;5074685;28;20441;-72
2022/04/11 14:51:57;;;;;;;2.20;1.30;;;;;;;;;;5076061;28;20759;-71